Latest Weather Observations for Thevenard

IDS60801

Issued at 2:01 pm CDT Saturday 25 November 2017 (issued every 30 minutes, with the page automatically refreshed every 10 minutes)

About weather observations | Map of weather stations | Latest weather observations for SA | Other Formats
Station Details ID: 018200 Name: THEVENARD WIND Lat: -32.18 Lon: 133.63 Height: 8.54 m
Data from the previous 72 hours. | See also: Recent months for locations in South Australia
Date/Time
CDT
Temp
°C
App
Temp
°C
Dew
Point
°C
Rel
Hum
%
Delta-T
°C
Wind Press
QNH
hPa
Press
MSL
hPa
Rain since
9am
mm
Dir  Spd
km/h
Gust
km/h
Spd
kts
Gust
kts
25/02:00pm - - - - - SSW 22 30 12 16 - - -
25/01:30pm - - - - - SSW 22 24 12 13 - - -
25/01:00pm - - - - - S 13 19 7 10 - - -
25/12:30pm - - - - - S 11 13 6 7 - - -
25/12:00pm - - - - - S 11 13 6 7 - - -
25/11:30am - - - - - S 13 15 7 8 - - -
25/11:00am - - - - - SE 7 11 4 6 - - -
25/10:30am - - - - - SE 9 15 5 8 - - -
25/10:00am - - - - - ESE 11 19 6 10 - - -
25/09:30am - - - - - ESE 11 19 6 10 - - -
25/09:00am - - - - - E 13 19 7 10 - - -
25/08:30am - - - - - ESE 13 22 7 12 - - -
25/08:00am - - - - - E 15 19 8 10 - - -
25/07:30am - - - - - E 11 15 6 8 - - -
25/07:00am - - - - - E 17 20 9 11 - - -
25/06:30am - - - - - SSE 11 15 6 8 - - -
25/06:00am - - - - - SSE 15 24 8 13 - - -
25/05:30am - - - - - SE 11 17 6 9 - - -
25/05:00am - - - - - SSE 19 24 10 13 - - -
25/04:30am - - - - - SE 13 17 7 9 - - -
25/04:00am - - - - - ESE 13 17 7 9 - - -
25/03:30am - - - - - SSE 13 19 7 10 - - -
25/03:00am - - - - - SSE 19 24 10 13 - - -
25/02:30am - - - - - SSE 20 26 11 14 - - -
25/02:00am - - - - - SSE 24 30 13 16 - - -
25/01:30am - - - - - SE 20 26 11 14 - - -
25/01:00am - - - - - SSE 20 26 11 14 - - -
25/12:30am - - - - - SSE 22 30 12 16 - - -
25/12:00am - - - - - SSE 24 30 13 16 - - -
 
Date/Time
CDT
Temp
°C
App
Temp
°C
Dew
Point
°C
Rel
Hum
%
Delta-T
°C
Wind Press
QNH
hPa
Press
MSL
hPa
Rain since
9am
mm
Dir  Spd
km/h
Gust
km/h
Spd
kts
Gust
kts
24/11:30pm - - - - - SSE 22 30 12 16 - - -
24/11:00pm - - - - - SSE 22 30 12 16 - - -
24/10:30pm - - - - - SSE 24 28 13 15 - - -
24/10:00pm - - - - - SSE 20 30 11 16 - - -
24/09:30pm - - - - - SSE 26 32 14 17 - - -
24/09:00pm - - - - - SSE 24 32 13 17 - - -
24/08:30pm - - - - - SSE 28 33 15 18 - - -
24/08:00pm - - - - - SSE 24 30 13 16 - - -
24/07:30pm - - - - - SSE 26 32 14 17 - - -
24/07:00pm - - - - - SSE 28 32 15 17 - - -
24/06:30pm - - - - - S 24 30 13 16 - - -
24/06:00pm - - - - - S 26 32 14 17 - - -
24/05:30pm - - - - - S 24 30 13 16 - - -
24/05:00pm - - - - - SSE 24 30 13 16 - - -
24/04:30pm - - - - - S 24 30 13 16 - - -
24/04:00pm - - - - - S 24 28 13 15 - - -
24/03:30pm - - - - - S 20 32 11 17 - - -
24/03:00pm - - - - - SSE 24 30 13 16 - - -
24/02:30pm - - - - - SSE 22 26 12 14 - - -
24/02:00pm - - - - - SSE 24 28 13 15 - - -
24/01:30pm - - - - - SSE 20 26 11 14 - - -
24/01:00pm - - - - - SSE 20 26 11 14 - - -
24/12:30pm - - - - - SSE 19 22 10 12 - - -
24/12:00pm - - - - - S 15 19 8 10 - - -
24/11:30am - - - - - SSE 17 24 9 13 - - -
24/11:00am - - - - - S 20 26 11 14 - - -
24/10:30am - - - - - SSE 17 22 9 12 - - -
24/10:00am - - - - - S 20 24 11 13 - - -
24/09:30am - - - - - S 22 26 12 14 - - -
24/09:00am - - - - - S 26 30 14 16 - - -
24/08:30am - - - - - S 24 30 13 16 - - -
24/08:00am - - - - - S 22 28 12 15 - - -
24/07:30am - - - - - SSE 19 26 10 14 - - -
24/07:00am - - - - - SSE 20 26 11 14 - - -
24/06:30am - - - - - SSE 22 28 12 15 - - -
24/06:00am - - - - - SSE 24 28 13 15 - - -
24/05:30am - - - - - S 19 22 10 12 - - -
24/05:00am - - - - - S 24 30 13 16 - - -
24/04:30am - - - - - S 24 28 13 15 - - -
24/04:00am - - - - - SSE 24 32 13 17 - - -
24/03:30am - - - - - SSE 26 30 14 16 - - -
24/03:00am - - - - - S 24 28 13 15 - - -
24/02:30am - - - - - S 28 32 15 17 - - -
24/02:00am - - - - - S 24 30 13 16 - - -
24/01:30am - - - - - SSE 22 26 12 14 - - -
24/01:00am - - - - - SSE 24 28 13 15 - - -
24/12:30am - - - - - S 26 32 14 17 - - -
24/12:00am - - - - - S 28 32 15 17 - - -
 
Date/Time
CDT
Temp
°C
App
Temp
°C
Dew
Point
°C
Rel
Hum
%
Delta-T
°C
Wind Press
QNH
hPa
Press
MSL
hPa
Rain since
9am
mm
Dir  Spd
km/h
Gust
km/h
Spd
kts
Gust
kts
23/11:30pm - - - - - S 32 39 17 21 - - -
23/11:00pm - - - - - SSE 32 39 17 21 - - -
23/10:30pm - - - - - S 35 39 19 21 - - -
23/10:00pm - - - - - S 32 39 17 21 - - -
23/09:30pm - - - - - S 33 39 18 21 - - -
23/09:00pm - - - - - S 33 41 18 22 - - -
23/08:30pm - - - - - S 35 43 19 23 - - -
23/08:00pm - - - - - S 37 44 20 24 - - -
23/07:30pm - - - - - S 33 39 18 21 - - -
23/07:00pm - - - - - S 35 41 19 22 - - -
23/06:30pm - - - - - S 33 41 18 22 - - -
23/06:00pm - - - - - SSW 35 43 19 23 - - -
23/05:30pm - - - - - SSW 33 39 18 21 - - -
23/05:00pm - - - - - SSW 33 39 18 21 - - -
23/04:30pm - - - - - SSW 33 41 18 22 - - -
23/04:00pm - - - - - SSW 33 41 18 22 - - -
23/03:30pm - - - - - SSW 35 43 19 23 - - -
23/03:00pm - - - - - SSW 35 43 19 23 - - -
23/02:30pm - - - - - SSW 35 41 19 22 - - -
23/02:00pm - - - - - SSW 33 39 18 21 - - -
23/01:30pm - - - - - SSW 35 39 19 21 - - -
23/01:00pm - - - - - SW 32 35 17 19 - - -
23/12:30pm - - - - - SW 32 37 17 20 - - -
23/12:00pm - - - - - SW 30 35 16 19 - - -
23/11:30am - - - - - SW 30 35 16 19 - - -
23/11:00am - - - - - WSW 26 32 14 17 - - -
23/10:30am - - - - - W 26 32 14 17 - - -
23/10:00am - - - - - WSW 28 33 15 18 - - -
23/09:30am - - - - - W 24 28 13 15 - - -
23/09:00am - - - - - W 26 32 14 17 - - -
23/08:30am - - - - - W 26 32 14 17 - - -
23/08:00am - - - - - W 32 39 17 21 - - -
23/07:30am - - - - - WNW 30 33 16 18 - - -
23/07:00am - - - - - WNW 24 30 13 16 - - -
23/06:30am - - - - - WNW 24 30 13 16 - - -
23/06:00am - - - - - W 26 32 14 17 - - -
23/05:30am - - - - - WNW 24 28 13 15 - - -
23/05:00am - - - - - WNW 26 30 14 16 - - -
23/04:30am - - - - - W 24 28 13 15 - - -
23/04:00am - - - - - WNW 28 32 15 17 - - -
23/03:30am - - - - - WNW 24 28 13 15 - - -
23/03:00am - - - - - W 24 33 13 18 - - -
23/02:30am - - - - - WSW 28 33 15 18 - - -
23/02:00am - - - - - W 19 22 10 12 - - -
23/01:30am - - - - - W 20 33 11 18 - - -
23/01:00am - - - - - SW 28 35 15 19 - - -
23/12:30am - - - - - SW 32 37 17 20 - - -
23/12:00am - - - - - SW 30 33 16 18 - - -
 
Date/Time
CDT
Temp
°C
App
Temp
°C
Dew
Point
°C
Rel
Hum
%
Delta-T
°C
Wind Press
QNH
hPa
Press
MSL
hPa
Rain since
9am
mm
Dir  Spd
km/h
Gust
km/h
Spd
kts
Gust
kts
22/11:30pm - - - - - SW 30 35 16 19 - - -
22/11:00pm - - - - - SW 28 33 15 18 - - -
22/10:30pm - - - - - SW 28 32 15 17 - - -
22/10:00pm - - - - - SW 30 35 16 19 - - -
22/09:30pm - - - - - SW 30 35 16 19 - - -
22/09:00pm - - - - - SW 30 35 16 19 - - -
22/08:30pm - - - - - SW 33 39 18 21 - - -
22/08:00pm - - - - - SW 32 37 17 20 - - -
22/07:30pm - - - - - SSW 30 35 16 19 - - -
22/07:00pm - - - - - SW 33 39 18 21 - - -
22/06:30pm - - - - - SW 32 39 17 21 - - -
22/06:00pm - - - - - SW 28 33 15 18 - - -
22/05:30pm - - - - - SW 32 37 17 20 - - -
22/05:00pm - - - - - SSW 32 35 17 19 - - -
22/04:30pm - - - - - SSW 26 32 14 17 - - -
22/04:00pm - - - - - SW 28 32 15 17 - - -
22/03:30pm - - - - - SW 24 30 13 16 - - -
22/03:00pm - - - - - SW 24 30 13 16 - - -
22/02:30pm - - - - - SW 26 28 14 15 - - -

Other Formats:

Comma delimited format used in spreadsheet applications
http://www.bom.gov.au/fwo/IDS60801/IDS60801.95653.axf

JavaScript Object Notation format (JSON) in row-major order
http://www.bom.gov.au/fwo/IDS60801/IDS60801.95653.json